createdAt,value
2018-08-03T00:00:59.343Z,1021.39
2018-08-03T00:01:59.338Z,1021.42
2018-08-03T00:02:59.345Z,1021.43
2018-08-03T00:03:59.382Z,1021.42
2018-08-03T00:04:59.515Z,1021.4
2018-08-03T00:05:59.400Z,1021.45
2018-08-03T00:06:59.341Z,1021.42
2018-08-03T00:07:59.380Z,1021.42
2018-08-03T00:08:59.364Z,1021.44
2018-08-03T00:09:59.392Z,1021.39
2018-08-03T00:10:59.359Z,1021.4
2018-08-03T00:11:59.344Z,1021.41
2018-08-03T00:12:59.372Z,1021.39
2018-08-03T00:13:59.398Z,1021.42
2018-08-03T00:14:59.385Z,1021.37
2018-08-03T00:15:59.401Z,1021.35
2018-08-03T00:16:59.383Z,1021.37
2018-08-03T00:17:59.416Z,1021.37
2018-08-03T00:18:59.390Z,1021.42
2018-08-03T00:19:59.407Z,1021.39
2018-08-03T00:20:59.380Z,1021.38
2018-08-03T00:21:59.343Z,1021.42
2018-08-03T00:22:59.352Z,1021.44
2018-08-03T00:23:59.356Z,1021.44
2018-08-03T00:24:59.391Z,1021.48
2018-08-03T00:25:59.371Z,1021.46
2018-08-03T00:26:59.356Z,1021.46
2018-08-03T00:27:59.361Z,1021.51
2018-08-03T00:28:59.365Z,1021.54
2018-08-03T00:29:59.382Z,1021.5
2018-08-03T00:30:59.371Z,1021.49
2018-08-03T00:31:59.395Z,1021.53
2018-08-03T00:32:59.375Z,1021.51
2018-08-03T00:33:59.381Z,1021.46
2018-08-03T00:34:59.444Z,1021.43
2018-08-03T00:35:59.388Z,1021.44
2018-08-03T00:36:59.418Z,1021.46
2018-08-03T00:37:59.470Z,1021.41
2018-08-03T00:38:59.402Z,1021.4
2018-08-03T00:39:59.451Z,1021.41
2018-08-03T00:40:59.388Z,1021.4
2018-08-03T00:41:59.452Z,1021.37
2018-08-03T00:42:59.384Z,1021.37
2018-08-03T00:43:59.425Z,1021.34
2018-08-03T00:44:59.461Z,1021.39
2018-08-03T00:45:59.398Z,1021.4
2018-08-03T00:46:59.439Z,1021.36
2018-08-03T00:47:59.500Z,1021.37
2018-08-03T00:48:59.459Z,1021.36
2018-08-03T00:49:59.415Z,1021.37
2018-08-03T00:50:59.456Z,1021.36
2018-08-03T00:51:59.397Z,1021.36
2018-08-03T00:52:59.501Z,1021.34
2018-08-03T00:53:59.448Z,1021.36
2018-08-03T00:54:59.431Z,1021.35
2018-08-03T00:55:59.408Z,1021.36
2018-08-03T00:56:59.621Z,1021.33
2018-08-03T00:57:59.468Z,1021.31
2018-08-03T00:58:59.476Z,1021.32
2018-08-03T00:59:59.470Z,1021.34
2018-08-03T01:00:59.538Z,1021.3
2018-08-03T01:01:59.493Z,1021.34
2018-08-03T01:02:59.474Z,1021.34
2018-08-03T01:03:59.405Z,1021.32
2018-08-03T01:04:59.433Z,1021.3
2018-08-03T01:05:59.430Z,1021.31
2018-08-03T01:06:59.479Z,1021.29
2018-08-03T01:07:59.486Z,1021.3
2018-08-03T01:08:59.438Z,1021.32
2018-08-03T01:09:59.455Z,1021.34
2018-08-03T01:10:59.446Z,1021.31
2018-08-03T01:11:59.629Z,1021.29
2018-08-03T01:12:59.497Z,1021.31
2018-08-03T01:13:59.471Z,1021.33
2018-08-03T01:14:59.480Z,1021.33
2018-08-03T01:15:59.466Z,1021.35
2018-08-03T01:16:59.465Z,1021.32
2018-08-03T01:17:59.449Z,1021.33
2018-08-03T01:18:59.607Z,1021.3
2018-08-03T01:19:59.563Z,1021.33
2018-08-03T01:20:59.431Z,1021.34
2018-08-03T01:21:59.432Z,1021.37
2018-08-03T01:22:59.454Z,1021.34
2018-08-03T01:23:59.445Z,1021.34
2018-08-03T01:24:59.546Z,1021.33
2018-08-03T01:25:59.465Z,1021.35
2018-08-03T01:26:59.594Z,1021.34
2018-08-03T01:27:59.447Z,1021.34
2018-08-03T01:28:59.495Z,1021.33
2018-08-03T01:29:59.459Z,1021.33
2018-08-03T01:30:59.454Z,1021.32
2018-08-03T01:31:59.479Z,1021.32
2018-08-03T01:32:59.453Z,1021.3
2018-08-03T01:33:59.495Z,1021.33
2018-08-03T01:34:59.466Z,1021.32
2018-08-03T01:35:59.442Z,1021.36
2018-08-03T01:36:59.524Z,1021.37
2018-08-03T01:37:59.908Z,1021.38
2018-08-03T01:38:59.453Z,1021.37
2018-08-03T01:39:59.496Z,1021.35
2018-08-03T01:40:59.468Z,1021.36
2018-08-03T01:41:59.522Z,1021.35
2018-08-03T01:42:59.476Z,1021.37
2018-08-03T01:43:59.512Z,1021.37
2018-08-03T01:44:59.502Z,1021.4
2018-08-03T01:45:59.487Z,1021.39
2018-08-03T01:46:59.492Z,1021.4
2018-08-03T01:47:59.467Z,1021.42
2018-08-03T01:48:59.477Z,1021.39
2018-08-03T01:49:59.483Z,1021.39
2018-08-03T01:50:59.681Z,1021.42
2018-08-03T01:51:59.530Z,1021.41
2018-08-03T01:52:59.491Z,1021.45
2018-08-03T01:53:59.521Z,1021.43
2018-08-03T01:54:59.502Z,1021.48
2018-08-03T01:55:59.490Z,1021.48
2018-08-03T01:56:59.484Z,1021.51
2018-08-03T01:57:59.595Z,1021.52
2018-08-03T01:58:59.606Z,1021.54
2018-08-03T01:59:59.606Z,1021.49
2018-08-03T02:00:59.564Z,1021.47
2018-08-03T02:01:59.562Z,1021.49
2018-08-03T02:02:59.580Z,1021.47
2018-08-03T02:03:59.510Z,1021.5
2018-08-03T02:04:59.663Z,1021.51
2018-08-03T02:05:59.594Z,1021.48
2018-08-03T02:06:59.566Z,1021.47
2018-08-03T02:07:59.629Z,1021.5
2018-08-03T02:08:59.825Z,1021.49
2018-08-03T02:09:59.516Z,1021.48
2018-08-03T02:10:59.592Z,1021.44
2018-08-03T02:11:59.498Z,1021.46
2018-08-03T02:12:59.504Z,1021.43
2018-08-03T02:13:59.526Z,1021.46
2018-08-03T02:14:59.628Z,1021.45
2018-08-03T02:15:59.539Z,1021.46
2018-08-03T02:16:59.601Z,1021.43
2018-08-03T02:17:59.682Z,1021.45
2018-08-03T02:18:59.634Z,1021.44
2018-08-03T02:19:59.575Z,1021.47
2018-08-03T02:20:59.719Z,1021.45
2018-08-03T02:21:59.562Z,1021.48
2018-08-03T02:22:59.588Z,1021.52
2018-08-03T02:23:59.533Z,1021.41
2018-08-03T02:24:59.560Z,1021.47
2018-08-03T02:25:59.545Z,1021.43
2018-08-03T02:26:59.665Z,1021.41
2018-08-03T02:27:59.562Z,1021.43
2018-08-03T02:28:59.597Z,1021.47
2018-08-03T02:29:59.641Z,1021.44
2018-08-03T02:30:59.525Z,1021.45
2018-08-03T02:31:59.632Z,1021.46
2018-08-03T02:32:59.551Z,1021.49
2018-08-03T02:33:59.579Z,1021.44
2018-08-03T02:34:59.645Z,1021.43
2018-08-03T02:35:59.708Z,1021.44
2018-08-03T02:36:59.810Z,1021.37
2018-08-03T02:37:59.659Z,1021.4
2018-08-03T02:38:59.551Z,1021.42
2018-08-03T02:39:59.563Z,1021.38
2018-08-03T02:40:59.553Z,1021.39
2018-08-03T02:41:59.564Z,1021.43
2018-08-03T02:42:59.618Z,1021.45
2018-08-03T02:43:59.668Z,1021.48
2018-08-03T02:44:59.572Z,1021.44
2018-08-03T02:45:59.557Z,1021.42
2018-08-03T02:46:59.577Z,1021.45
2018-08-03T02:47:59.550Z,1021.42
2018-08-03T02:48:59.556Z,1021.43
2018-08-03T02:49:59.563Z,1021.43
2018-08-03T02:50:59.553Z,1021.46
2018-08-03T02:51:59.604Z,1021.45
2018-08-03T02:52:59.585Z,1021.42
2018-08-03T02:53:59.561Z,1021.46
2018-08-03T02:54:59.630Z,1021.45
2018-08-03T02:55:59.549Z,1021.44
2018-08-03T02:56:59.600Z,1021.44
2018-08-03T02:57:59.563Z,1021.42
2018-08-03T02:58:59.580Z,1021.44
2018-08-03T02:59:59.578Z,1021.44
2018-08-03T03:00:59.592Z,1021.44
2018-08-03T03:01:59.601Z,1021.46
2018-08-03T03:02:59.596Z,1021.45
2018-08-03T03:03:59.575Z,1021.45
2018-08-03T03:04:59.566Z,1021.48
2018-08-03T03:05:59.674Z,1021.49
2018-08-03T03:06:59.627Z,1021.46
2018-08-03T03:07:59.637Z,1021.49
2018-08-03T03:08:59.628Z,1021.51
2018-08-03T03:09:59.581Z,1021.49
2018-08-03T03:10:59.588Z,1021.49
2018-08-03T03:11:59.629Z,1021.53
2018-08-03T03:12:59.700Z,1021.52
2018-08-03T03:13:59.662Z,1021.5
2018-08-03T03:14:59.678Z,1021.53
2018-08-03T03:15:59.603Z,1021.57
2018-08-03T03:16:59.586Z,1021.55
2018-08-03T03:17:59.586Z,1021.58
2018-08-03T03:18:59.598Z,1021.6
2018-08-03T03:19:59.657Z,1021.58
2018-08-03T03:20:59.607Z,1021.58
2018-08-03T03:21:59.613Z,1021.63
2018-08-03T03:22:59.594Z,1021.64
2018-08-03T03:23:59.626Z,1021.57
2018-08-03T03:24:59.728Z,1021.62
2018-08-03T03:25:59.686Z,1021.64
2018-08-03T03:26:59.810Z,1021.58
2018-08-03T03:27:59.712Z,1021.63
2018-08-03T03:28:59.627Z,1021.65
2018-08-03T03:29:59.781Z,1021.65
2018-08-03T03:30:59.686Z,1021.66
2018-08-03T03:31:59.701Z,1021.65
2018-08-03T03:32:59.644Z,1021.64
2018-08-03T03:33:59.816Z,1021.68
2018-08-03T03:34:59.616Z,1021.74
2018-08-03T03:35:59.609Z,1021.77
2018-08-03T03:36:59.619Z,1021.79
2018-08-03T03:37:59.689Z,1021.76
2018-08-03T03:38:59.637Z,1021.83
2018-08-03T03:39:59.634Z,1021.83
2018-08-03T03:40:59.813Z,1021.85
2018-08-03T03:41:59.645Z,1021.8
2018-08-03T03:42:59.706Z,1021.82
2018-08-03T03:43:59.620Z,1021.8
2018-08-03T03:44:59.679Z,1021.79
2018-08-03T03:45:59.633Z,1021.81
2018-08-03T03:46:59.781Z,1021.86
2018-08-03T03:47:59.677Z,1021.79
2018-08-03T03:48:59.627Z,1021.86
2018-08-03T03:49:59.644Z,1021.87
2018-08-03T03:50:59.841Z,1021.91
2018-08-03T03:51:59.665Z,1021.89
2018-08-03T03:52:59.633Z,1021.88
2018-08-03T03:53:59.723Z,1021.88
2018-08-03T03:54:59.752Z,1021.9
2018-08-03T03:55:59.899Z,1021.95
2018-08-03T03:56:59.699Z,1021.98
2018-08-03T03:57:59.745Z,1021.94
2018-08-03T03:58:59.709Z,1021.9
2018-08-03T03:59:59.643Z,1021.97
2018-08-03T04:00:59.633Z,1021.93
2018-08-03T04:01:59.633Z,1021.93
2018-08-03T04:02:59.649Z,1021.92
2018-08-03T04:03:59.656Z,1021.9
2018-08-03T04:04:59.652Z,1021.91
2018-08-03T04:05:59.653Z,1021.86
2018-08-03T04:06:59.650Z,1021.92
2018-08-03T04:07:59.674Z,1021.88
2018-08-03T04:08:59.678Z,1021.92
2018-08-03T04:09:59.661Z,1021.89
2018-08-03T04:10:59.855Z,1021.93
2018-08-03T04:11:59.696Z,1021.87
2018-08-03T04:12:59.660Z,1021.88
2018-08-03T04:13:59.655Z,1021.95
2018-08-03T04:14:59.654Z,1021.93
2018-08-03T04:15:59.668Z,1021.89
2018-08-03T04:16:59.683Z,1021.9
2018-08-03T04:17:59.660Z,1021.88
2018-08-03T04:18:59.667Z,1021.88
2018-08-03T04:19:59.696Z,1021.91
2018-08-03T04:20:59.695Z,1021.91
2018-08-03T04:21:59.663Z,1021.91
2018-08-03T04:22:59.660Z,1021.91
2018-08-03T04:23:59.681Z,1021.89
2018-08-03T04:24:59.844Z,1021.91
2018-08-03T04:25:59.671Z,1021.89
2018-08-03T04:26:59.832Z,1021.85
2018-08-03T04:27:59.719Z,1021.87
2018-08-03T04:28:59.743Z,1021.88
2018-08-03T04:29:59.744Z,1021.87
2018-08-03T04:30:59.684Z,1021.85
2018-08-03T04:31:59.690Z,1021.88
2018-08-03T04:32:59.666Z,1021.89
2018-08-03T04:33:59.739Z,1021.88
2018-08-03T04:34:59.750Z,1021.89
2018-08-03T04:35:59.692Z,1021.86
2018-08-03T04:36:59.769Z,1021.86
2018-08-03T04:37:59.697Z,1021.84
2018-08-03T04:38:59.769Z,1021.82
2018-08-03T04:39:59.715Z,1021.83
2018-08-03T04:40:59.701Z,1021.85
2018-08-03T04:41:59.708Z,1021.87
2018-08-03T04:42:59.704Z,1021.91
2018-08-03T04:43:59.709Z,1021.89
2018-08-03T04:44:59.723Z,1021.94
2018-08-03T04:45:59.730Z,1021.9
2018-08-03T04:46:59.823Z,1021.94
2018-08-03T04:47:59.738Z,1021.95
2018-08-03T04:48:59.702Z,1021.9
2018-08-03T04:49:59.779Z,1021.93
2018-08-03T04:50:59.778Z,1021.96
2018-08-03T04:51:59.754Z,1021.95
2018-08-03T04:52:59.727Z,1021.96
2018-08-03T04:53:59.761Z,1022.02
2018-08-03T04:54:59.754Z,1022.01
2018-08-03T04:55:59.758Z,1022.02
2018-08-03T04:56:59.704Z,1021.97
2018-08-03T04:57:59.735Z,1022
2018-08-03T04:58:59.751Z,1022.03
2018-08-03T05:00:00.004Z,1022.05
2018-08-03T05:00:59.751Z,1022.03
2018-08-03T05:01:59.732Z,1022.02
2018-08-03T05:02:59.878Z,1022
2018-08-03T05:03:59.744Z,1022.02
2018-08-03T05:04:59.742Z,1022.02
2018-08-03T05:05:59.758Z,1022.02
2018-08-03T05:06:59.744Z,1022.06
2018-08-03T05:07:59.906Z,1022
2018-08-03T05:08:59.780Z,1022.05
2018-08-03T05:09:59.823Z,1022.02
2018-08-03T05:10:59.730Z,1022.03
2018-08-03T05:11:59.746Z,1022.05
2018-08-03T05:12:59.799Z,1022.08
2018-08-03T05:13:59.738Z,1022.05
2018-08-03T05:14:59.738Z,1022.07
2018-08-03T05:15:59.766Z,1022.05
2018-08-03T05:16:59.728Z,1022.06
2018-08-03T05:17:59.748Z,1022.03
2018-08-03T05:18:59.801Z,1022.07
2018-08-03T05:19:59.741Z,1022.04
2018-08-03T05:20:59.748Z,1022.07
2018-08-03T05:21:59.762Z,1022.1
2018-08-03T05:22:59.912Z,1022.11
2018-08-03T05:23:59.796Z,1022.1
2018-08-03T05:24:59.752Z,1022.14
2018-08-03T05:25:59.742Z,1022.15
2018-08-03T05:26:59.741Z,1022.1
2018-08-03T05:27:59.754Z,1022.11
2018-08-03T05:28:59.769Z,1022.13
2018-08-03T05:29:59.759Z,1022.12
2018-08-03T05:30:59.788Z,1022.15
2018-08-03T05:31:59.820Z,1022.18
2018-08-03T05:32:59.773Z,1022.18
2018-08-03T05:33:59.788Z,1022.19
2018-08-03T05:34:59.804Z,1022.21
2018-08-03T05:36:00.140Z,1022.18
2018-08-03T05:36:59.750Z,1022.19
2018-08-03T05:37:59.822Z,1022.15
2018-08-03T05:38:59.905Z,1022.17
2018-08-03T05:39:59.777Z,1022.19
2018-08-03T05:40:59.941Z,1022.18
2018-08-03T05:41:59.784Z,1022.16
2018-08-03T05:42:59.904Z,1022.17
2018-08-03T05:43:59.815Z,1022.2
2018-08-03T05:44:59.812Z,1022.19
2018-08-03T05:45:59.767Z,1022.19
2018-08-03T05:47:00.307Z,1022.17
2018-08-03T05:47:59.797Z,1022.14
2018-08-03T05:48:59.944Z,1022.21
2018-08-03T05:50:00.260Z,1022.21
2018-08-03T05:50:59.862Z,1022.15
2018-08-03T05:51:59.798Z,1022.21
2018-08-03T05:52:59.793Z,1022.22
2018-08-03T05:53:59.779Z,1022.21
2018-08-03T05:54:59.987Z,1022.2
2018-08-03T05:55:59.788Z,1022.23
2018-08-03T05:56:59.797Z,1022.22
2018-08-03T05:58:00.068Z,1022.22
2018-08-03T05:59:00.051Z,1022.23
2018-08-03T05:59:59.814Z,1022.21
2018-08-03T06:00:59.869Z,1022.21
2018-08-03T06:01:59.808Z,1022.22
2018-08-03T06:02:59.937Z,1022.19
2018-08-03T06:03:59.932Z,1022.17
2018-08-03T06:04:59.792Z,1022.17
2018-08-03T06:06:00.028Z,1022.19
2018-08-03T06:06:59.861Z,1022.21
2018-08-03T06:07:59.830Z,1022.19
2018-08-03T06:08:59.821Z,1022.23
2018-08-03T06:09:59.818Z,1022.18
2018-08-03T06:10:59.951Z,1022.19
2018-08-03T06:11:59.834Z,1022.16
2018-08-03T06:12:59.838Z,1022.2
2018-08-03T06:13:59.998Z,1022.22
2018-08-03T06:14:59.960Z,1022.21
2018-08-03T06:15:59.823Z,1022.23
2018-08-03T06:16:59.886Z,1022.22
2018-08-03T06:17:59.905Z,1022.19
2018-08-03T06:19:00.138Z,1022.19
2018-08-03T06:19:59.826Z,1022.19
2018-08-03T06:20:59.878Z,1022.2
2018-08-03T06:21:59.940Z,1022.18
2018-08-03T06:22:59.814Z,1022.19
2018-08-03T06:23:59.966Z,1022.13
2018-08-03T06:24:59.973Z,1022.17
2018-08-03T06:26:00.166Z,1022.2
2018-08-03T06:26:59.999Z,1022.2
2018-08-03T06:28:00.420Z,1022.2
2018-08-03T06:28:59.903Z,1022.23
2018-08-03T06:30:00.032Z,1022.2
2018-08-03T06:30:59.902Z,1022.24
2018-08-03T06:31:59.851Z,1022.22
2018-08-03T06:32:59.834Z,1022.19
2018-08-03T06:33:59.850Z,1022.23
2018-08-03T06:34:59.843Z,1022.2
2018-08-03T06:35:59.870Z,1022.17
2018-08-03T06:36:59.868Z,1022.19
2018-08-03T06:37:59.855Z,1022.19
2018-08-03T06:38:59.880Z,1022.18
2018-08-03T06:39:59.869Z,1022.23
2018-08-03T06:40:59.871Z,1022.22
2018-08-03T06:41:59.848Z,1022.27
2018-08-03T06:42:59.890Z,1022.23
2018-08-03T06:43:59.854Z,1022.21
2018-08-03T06:44:59.890Z,1022.2
2018-08-03T06:45:59.868Z,1022.2
2018-08-03T06:46:59.867Z,1022.22
2018-08-03T06:47:59.866Z,1022.19
2018-08-03T06:48:59.882Z,1022.19
2018-08-03T06:49:59.896Z,1022.18
2018-08-03T06:50:59.920Z,1022.18
2018-08-03T06:51:59.915Z,1022.23
2018-08-03T06:52:59.888Z,1022.21
2018-08-03T06:54:00.002Z,1022.19
2018-08-03T06:54:59.884Z,1022.21
2018-08-03T06:56:00.034Z,1022.19
2018-08-03T06:56:59.936Z,1022.19
2018-08-03T06:57:59.887Z,1022.15
2018-08-03T06:59:00.129Z,1022.15
2018-08-03T07:00:00.020Z,1022.15
2018-08-03T07:00:59.906Z,1022.18
2018-08-03T07:01:59.881Z,1022.17
2018-08-03T07:03:00.334Z,1022.18
2018-08-03T07:04:00.021Z,1022.14
2018-08-03T07:04:59.932Z,1022.18
2018-08-03T07:05:59.937Z,1022.14
2018-08-03T07:06:59.906Z,1022.15
2018-08-03T07:07:59.888Z,1022.09
2018-08-03T07:08:59.951Z,1022.15
2018-08-03T07:09:59.940Z,1022.18
2018-08-03T07:11:00.022Z,1022.13
2018-08-03T07:11:59.923Z,1022.05
2018-08-03T07:13:00.052Z,1022.1
2018-08-03T07:13:59.927Z,1022.06
2018-08-03T07:15:00.066Z,1022.04
2018-08-03T07:15:59.987Z,1022.06
2018-08-03T07:16:59.910Z,1022.05
2018-08-03T07:17:59.925Z,1022.02
2018-08-03T07:19:00.061Z,1022.04
2018-08-03T07:20:00.201Z,1022.06
2018-08-03T07:20:59.936Z,1022.05
2018-08-03T07:21:59.901Z,1022.04
2018-08-03T07:22:59.914Z,1022.04
2018-08-03T07:23:59.960Z,1022.04
2018-08-03T07:24:59.921Z,1022.01
2018-08-03T07:26:00.106Z,1022.03
2018-08-03T07:26:59.963Z,1022.01
2018-08-03T07:27:59.930Z,1021.96
2018-08-03T07:28:59.948Z,1022
2018-08-03T07:29:59.932Z,1021.95
2018-08-03T07:31:00.135Z,1021.96
2018-08-03T07:31:59.966Z,1021.98
2018-08-03T07:33:00.122Z,1021.98
2018-08-03T07:33:59.958Z,1021.97
2018-08-03T07:34:59.958Z,1021.96
2018-08-03T07:35:59.972Z,1021.96
2018-08-03T07:37:00.186Z,1021.97
2018-08-03T07:37:59.929Z,1021.98
2018-08-03T07:39:00.004Z,1021.97
2018-08-03T07:40:00.116Z,1021.93
2018-08-03T07:40:59.950Z,1021.94
2018-08-03T07:41:59.945Z,1021.94
2018-08-03T07:43:00.221Z,1021.92
2018-08-03T07:44:00.045Z,1021.93
2018-08-03T07:45:00.134Z,1021.92
2018-08-03T07:45:59.984Z,1021.91
2018-08-03T07:46:59.963Z,1021.94
2018-08-03T07:47:59.963Z,1021.94
2018-08-03T07:48:59.944Z,1021.92
2018-08-03T07:49:59.976Z,1021.95
2018-08-03T07:50:59.946Z,1021.91
2018-08-03T07:51:59.953Z,1021.92
2018-08-03T07:52:59.943Z,1021.94
2018-08-03T07:53:59.968Z,1021.91
2018-08-03T07:54:59.942Z,1021.94
2018-08-03T07:55:59.950Z,1021.9
2018-08-03T07:56:59.947Z,1021.91
2018-08-03T07:57:59.947Z,1021.91
2018-08-03T07:58:59.962Z,1021.86
2018-08-03T07:59:59.970Z,1021.89
2018-08-03T08:00:59.948Z,1021.94
2018-08-03T08:01:59.956Z,1021.93
2018-08-03T08:02:59.976Z,1021.89
2018-08-03T08:03:59.996Z,1021.88
2018-08-03T08:04:59.974Z,1021.87
2018-08-03T08:05:59.989Z,1021.83
2018-08-03T08:06:59.978Z,1021.83
2018-08-03T08:08:00.003Z,1021.75
2018-08-03T08:09:00.002Z,1021.76
2018-08-03T08:10:00.034Z,1021.78
2018-08-03T08:11:00.082Z,1021.78
2018-08-03T08:12:00.053Z,1021.77
2018-08-03T08:13:00.117Z,1021.75
2018-08-03T08:14:00.807Z,1021.76
2018-08-03T08:15:00.346Z,1021.7
2018-08-03T08:16:00.063Z,1021.71
2018-08-03T08:17:00.296Z,1021.69
2018-08-03T08:17:59.987Z,1021.74
2018-08-03T08:19:00.036Z,1021.74
2018-08-03T08:20:00.009Z,1021.72
2018-08-03T08:20:59.995Z,1021.76
2018-08-03T08:22:00.093Z,1021.73
2018-08-03T08:23:00.050Z,1021.74
2018-08-03T08:24:00.013Z,1021.74
2018-08-03T08:25:00.097Z,1021.71
2018-08-03T08:26:00.319Z,1021.72
2018-08-03T08:27:00.023Z,1021.76
2018-08-03T08:28:00.198Z,1021.77
2018-08-03T08:29:00.049Z,1021.79
2018-08-03T08:30:00.067Z,1021.78
2018-08-03T08:31:00.118Z,1021.74
2018-08-03T08:32:00.132Z,1021.78
2018-08-03T08:33:00.069Z,1021.76
2018-08-03T08:34:00.077Z,1021.71
2018-08-03T08:35:00.104Z,1021.74
2018-08-03T08:36:00.033Z,1021.74
2018-08-03T08:37:00.211Z,1021.76
2018-08-03T08:38:00.069Z,1021.78
2018-08-03T08:39:00.370Z,1021.78
2018-08-03T08:40:00.044Z,1021.77
2018-08-03T08:41:00.111Z,1021.76
2018-08-03T08:42:00.106Z,1021.73
2018-08-03T08:43:00.087Z,1021.71
2018-08-03T08:44:00.378Z,1021.68
2018-08-03T08:45:00.140Z,1021.7
2018-08-03T08:46:00.136Z,1021.67
2018-08-03T08:47:00.107Z,1021.68
2018-08-03T08:48:00.070Z,1021.7
2018-08-03T08:49:00.091Z,1021.71
2018-08-03T08:50:00.101Z,1021.67
2018-08-03T08:51:00.330Z,1021.64
2018-08-03T08:52:00.206Z,1021.7
2018-08-03T08:53:00.202Z,1021.67
2018-08-03T08:54:00.055Z,1021.64
2018-08-03T08:55:00.084Z,1021.64
2018-08-03T08:56:00.172Z,1021.65
2018-08-03T08:57:00.092Z,1021.63
2018-08-03T08:58:00.108Z,1021.64
2018-08-03T08:59:00.587Z,1021.64
2018-08-03T09:00:00.086Z,1021.6
2018-08-03T09:01:00.314Z,1021.59
2018-08-03T09:02:00.160Z,1021.58
2018-08-03T09:03:00.136Z,1021.59
2018-08-03T09:04:00.128Z,1021.57
2018-08-03T09:05:00.090Z,1021.57
2018-08-03T09:06:00.168Z,1021.56
2018-08-03T09:07:00.157Z,1021.59
2018-08-03T09:08:00.077Z,1021.55
2018-08-03T09:09:00.097Z,1021.53
2018-08-03T09:10:00.068Z,1021.57
2018-08-03T09:11:00.128Z,1021.53
2018-08-03T09:12:00.124Z,1021.54
2018-08-03T09:13:00.225Z,1021.52
2018-08-03T09:14:00.194Z,1021.52
2018-08-03T09:15:00.143Z,1021.5
2018-08-03T09:16:00.159Z,1021.5
2018-08-03T09:17:00.123Z,1021.51
2018-08-03T09:18:00.147Z,1021.47
2018-08-03T09:19:00.121Z,1021.53
2018-08-03T09:20:00.324Z,1021.46
2018-08-03T09:21:00.161Z,1021.45
2018-08-03T09:22:00.319Z,1021.42
2018-08-03T09:23:00.158Z,1021.38
2018-08-03T09:24:00.196Z,1021.35
2018-08-03T09:25:00.101Z,1021.39
2018-08-03T09:26:00.201Z,1021.34
2018-08-03T09:27:00.088Z,1021.39
2018-08-03T09:28:00.294Z,1021.39
2018-08-03T09:29:00.143Z,1021.39
2018-08-03T09:30:00.158Z,1021.37
2018-08-03T09:31:00.380Z,1021.37
2018-08-03T09:32:00.256Z,1021.34
2018-08-03T09:33:00.272Z,1021.34
2018-08-03T09:34:00.683Z,1021.29
2018-08-03T09:35:00.182Z,1021.28
2018-08-03T09:36:00.509Z,1021.29
2018-08-03T09:37:00.148Z,1021.24
2018-08-03T09:38:00.197Z,1021.25
2018-08-03T09:39:00.180Z,1021.27
2018-08-03T09:40:02.310Z,1021.19
2018-08-03T09:41:00.226Z,1021.17
2018-08-03T09:42:00.072Z,1021.18
2018-08-03T09:43:00.933Z,1021.14
2018-08-03T09:44:00.298Z,1021.16
2018-08-03T09:45:00.457Z,1021.13
2018-08-03T09:46:00.255Z,1021.12
2018-08-03T09:47:00.368Z,1021.1
2018-08-03T09:48:00.276Z,1021.09
2018-08-03T09:49:00.114Z,1021.08
2018-08-03T09:50:00.611Z,1021.09
2018-08-03T09:51:00.360Z,1021.1
2018-08-03T09:52:00.183Z,1021.07
2018-08-03T09:53:00.113Z,1021.09
2018-08-03T09:54:00.624Z,1021.05
2018-08-03T09:55:00.529Z,1021.02
2018-08-03T09:56:00.237Z,1021.04
2018-08-03T09:57:00.152Z,1020.98
2018-08-03T09:58:00.276Z,1021.03
2018-08-03T09:59:00.194Z,1020.96
2018-08-03T10:00:00.139Z,1020.94
2018-08-03T10:01:00.195Z,1020.96
2018-08-03T10:02:00.124Z,1020.98
2018-08-03T10:03:00.264Z,1021.01
2018-08-03T10:04:00.301Z,1020.95
2018-08-03T10:05:00.382Z,1020.91
2018-08-03T10:06:00.190Z,1020.93
2018-08-03T10:07:00.151Z,1020.89
2018-08-03T10:08:00.177Z,1020.89
2018-08-03T10:09:00.117Z,1020.89
2018-08-03T10:10:00.144Z,1020.91
2018-08-03T10:11:00.155Z,1020.81
2018-08-03T10:12:00.327Z,1020.83
2018-08-03T10:13:00.181Z,1020.79
2018-08-03T10:14:00.768Z,1020.8
2018-08-03T10:15:00.191Z,1020.77
2018-08-03T10:16:00.196Z,1020.74
2018-08-03T10:17:00.167Z,1020.77
2018-08-03T10:18:00.156Z,1020.74
2018-08-03T10:19:00.199Z,1020.79
2018-08-03T10:20:00.311Z,1020.72
2018-08-03T10:21:00.114Z,1020.71
2018-08-03T10:22:00.182Z,1020.69
2018-08-03T10:23:00.150Z,1020.67
2018-08-03T10:24:00.207Z,1020.66
2018-08-03T10:25:00.163Z,1020.65
2018-08-03T10:26:00.208Z,1020.63
2018-08-03T10:27:00.188Z,1020.61
2018-08-03T10:28:00.188Z,1020.6
2018-08-03T10:29:00.293Z,1020.6
2018-08-03T10:30:00.175Z,1020.57
2018-08-03T10:31:00.243Z,1020.6
2018-08-03T10:32:00.222Z,1020.59
2018-08-03T10:33:00.180Z,1020.58
2018-08-03T10:34:00.180Z,1020.57
2018-08-03T10:35:00.323Z,1020.57
2018-08-03T10:36:00.270Z,1020.59
2018-08-03T10:37:00.287Z,1020.55
2018-08-03T10:38:00.163Z,1020.51
2018-08-03T10:39:00.229Z,1020.52
2018-08-03T10:40:00.213Z,1020.49
2018-08-03T10:41:00.173Z,1020.49
2018-08-03T10:42:00.217Z,1020.48
2018-08-03T10:43:00.716Z,1020.49
2018-08-03T10:44:00.176Z,1020.47
2018-08-03T10:45:00.423Z,1020.44
2018-08-03T10:46:00.272Z,1020.43
2018-08-03T10:47:00.384Z,1020.44
2018-08-03T10:48:00.438Z,1020.44
2018-08-03T10:49:00.388Z,1020.44
2018-08-03T10:50:00.203Z,1020.41
2018-08-03T10:51:00.211Z,1020.4
2018-08-03T10:52:00.241Z,1020.36
2018-08-03T10:53:00.222Z,1020.38
2018-08-03T10:54:00.230Z,1020.36
2018-08-03T10:55:00.271Z,1020.38
2018-08-03T10:56:00.277Z,1020.33
2018-08-03T10:57:00.295Z,1020.32
2018-08-03T10:58:00.330Z,1020.29
2018-08-03T10:59:00.237Z,1020.29
2018-08-03T11:00:00.254Z,1020.33
2018-08-03T11:01:00.364Z,1020.27
2018-08-03T11:02:00.235Z,1020.25
2018-08-03T11:03:00.435Z,1020.27
2018-08-03T11:04:00.300Z,1020.3
2018-08-03T11:05:00.261Z,1020.29
2018-08-03T11:06:00.201Z,1020.29
2018-08-03T11:07:00.188Z,1020.25
2018-08-03T11:08:00.258Z,1020.11
2018-08-03T11:09:00.400Z,1020.07
2018-08-03T11:10:00.250Z,1020.23
2018-08-03T11:11:00.391Z,1020.22
2018-08-03T11:12:00.206Z,1020.13
2018-08-03T11:13:00.221Z,1020.13
2018-08-03T11:14:06.307Z,1020.08
2018-08-03T11:15:00.252Z,1020.1
2018-08-03T11:16:00.380Z,1020.05
2018-08-03T11:17:00.203Z,1020.03
2018-08-03T11:18:00.208Z,1020.08
2018-08-03T11:19:00.380Z,1020.1
2018-08-03T11:20:00.254Z,1020.09
2018-08-03T11:21:00.326Z,1020.05
2018-08-03T11:22:00.297Z,1020.05
2018-08-03T11:23:00.260Z,1020.03
2018-08-03T11:24:00.437Z,1020.02
2018-08-03T11:25:00.328Z,1020.02
2018-08-03T11:26:00.263Z,1019.98
2018-08-03T11:27:00.217Z,1020.02
2018-08-03T11:28:00.341Z,1019.96
2018-08-03T11:29:00.366Z,1020
2018-08-03T11:30:00.366Z,1019.99
2018-08-03T11:31:00.279Z,1019.96
2018-08-03T11:32:00.414Z,1019.88
2018-08-03T11:33:00.507Z,1019.93
2018-08-03T11:34:00.223Z,1019.9
2018-08-03T11:35:00.251Z,1019.93
2018-08-03T11:36:00.263Z,1019.9
2018-08-03T11:37:00.251Z,1019.89
2018-08-03T11:38:00.414Z,1019.88
2018-08-03T11:39:00.432Z,1019.87
2018-08-03T11:40:00.434Z,1019.87
2018-08-03T11:41:00.434Z,1019.8
2018-08-03T11:42:00.340Z,1019.81
2018-08-03T11:43:00.345Z,1019.81
2018-08-03T11:44:00.260Z,1019.78
2018-08-03T11:45:00.467Z,1019.76
2018-08-03T11:46:00.316Z,1019.72
2018-08-03T11:47:00.374Z,1019.75
2018-08-03T11:48:00.384Z,1019.76
2018-08-03T11:49:00.436Z,1019.77
2018-08-03T11:50:00.397Z,1019.72
2018-08-03T11:51:04.528Z,1019.73
2018-08-03T11:52:00.445Z,1019.73
2018-08-03T11:53:00.333Z,1019.74
2018-08-03T11:54:00.509Z,1019.76
2018-08-03T11:55:00.435Z,1019.72
2018-08-03T11:56:00.434Z,1019.69
2018-08-03T11:57:04.851Z,1019.67
2018-08-03T11:58:00.352Z,1019.66
2018-08-03T11:59:00.356Z,1019.61
2018-08-03T12:00:00.473Z,1019.62
2018-08-03T12:01:01.397Z,1019.62
2018-08-03T12:02:00.553Z,1019.58
2018-08-03T12:03:00.587Z,1019.56
2018-08-03T12:04:04.287Z,1019.57
2018-08-03T12:05:00.508Z,1019.56
2018-08-03T12:06:00.406Z,1019.56
2018-08-03T12:07:00.408Z,1019.56
2018-08-03T12:08:00.300Z,1019.55
2018-08-03T12:09:00.288Z,1019.56